Current Conditions
Rain
Conditions



Pressure
1009.82 (mb) - 29.82 (inHG)
Visibility

6.0 (miles) - 9.7 (km)
Temperature
18  °C
Temperature
18  °C
Dewpoint
100  %
 Humidity
Wind Speed
8  mph
7  kts
13  km/h
3.6  m/s
Wind Direction
N
45°
E
90°
135°
S
180°
225°
W
270°
315°
 210°

South South
West
Airport Data
EGGD
Bristol Airport
Metar :EGGD 251250Z 21007KT 180V240 9999 3500E -RADZ SCT002 BKN003 OVC008 18/18 Q1010
Thu 25th July 13:50 pm
Raw Metar Info
Raw METAR is the most common format in the world for the transmission of observational weather data. It is highly standardized through the International Civil Aviation Organization (ICAO), which allows it to be understood throughout most of the world.
API Info
Data Provided by
https://www.checkwx.com/weather/EGGD

Aviation Weather providing METAR, TAF, AIRMET, SIGMET and OUTLOOK Weather Reports
© Info
CSS/SVG/PHP scripts were developed by weather34 for use in the weather34 template © 2015-2024

Guide Info provided by Metar-Wikipedia